sensor_id;sensor_type;location;lat;lon;timestamp;pressure;altitude;pressure_sealevel;temperature;humidity
33454;BME280;39400;49.744;7.012;2023-04-10T00:00:21;96416.53;;;6.95;72.48
33454;BME280;39400;49.744;7.012;2023-04-10T00:02:47;96425.25;;;7.01;72.62
33454;BME280;39400;49.744;7.012;2023-04-10T00:05:12;96423.47;;;7.28;72.14
33454;BME280;39400;49.744;7.012;2023-04-10T00:07:37;96420.28;;;7.26;71.56
33454;BME280;39400;49.744;7.012;2023-04-10T00:10:03;96418.00;;;7.28;71.21
33454;BME280;39400;49.744;7.012;2023-04-10T00:12:28;96420.44;;;7.33;71.82
33454;BME280;39400;49.744;7.012;2023-04-10T00:14:54;96422.59;;;7.24;71.42
33454;BME280;39400;49.744;7.012;2023-04-10T00:17:19;96420.16;;;7.19;71.55
33454;BME280;39400;49.744;7.012;2023-04-10T00:19:44;96416.25;;;7.20;71.69
33454;BME280;39400;49.744;7.012;2023-04-10T00:22:10;96403.81;;;7.22;71.70
33454;BME280;39400;49.744;7.012;2023-04-10T00:24:35;96395.47;;;7.34;71.38
33454;BME280;39400;49.744;7.012;2023-04-10T00:27:00;96395.41;;;7.31;71.94
33454;BME280;39400;49.744;7.012;2023-04-10T00:29:26;96396.06;;;7.24;71.56
33454;BME280;39400;49.744;7.012;2023-04-10T00:31:51;96397.25;;;7.27;71.83
33454;BME280;39400;49.744;7.012;2023-04-10T00:34:16;96393.09;;;7.33;71.69
33454;BME280;39400;49.744;7.012;2023-04-10T00:36:42;96386.75;;;7.29;71.15
33454;BME280;39400;49.744;7.012;2023-04-10T00:39:08;96391.31;;;7.21;71.84
33454;BME280;39400;49.744;7.012;2023-04-10T00:41:33;96389.03;;;7.27;71.10
33454;BME280;39400;49.744;7.012;2023-04-10T00:43:59;96385.91;;;7.25;71.30
33454;BME280;39400;49.744;7.012;2023-04-10T00:46:24;96391.56;;;7.35;71.24
33454;BME280;39400;49.744;7.012;2023-04-10T00:48:50;96397.97;;;7.43;70.93
33454;BME280;39400;49.744;7.012;2023-04-10T00:51:17;96386.88;;;7.36;71.11
33454;BME280;39400;49.744;7.012;2023-04-10T00:53:42;96392.94;;;7.45;70.34
33454;BME280;39400;49.744;7.012;2023-04-10T00:56:09;96398.69;;;7.40;71.21
33454;BME280;39400;49.744;7.012;2023-04-10T00:58:34;96398.56;;;7.33;71.47
33454;BME280;39400;49.744;7.012;2023-04-10T01:00:59;96399.41;;;7.37;71.33
33454;BME280;39400;49.744;7.012;2023-04-10T01:03:25;96391.44;;;7.28;71.76
33454;BME280;39400;49.744;7.012;2023-04-10T01:06:00;96390.50;;;7.21;71.77
33454;BME280;39400;49.744;7.012;2023-04-10T01:11:29;96384.28;;;7.24;71.72
33454;BME280;39400;49.744;7.012;2023-04-10T01:14:32;96383.81;;;7.18;71.73
33454;BME280;39400;49.744;7.012;2023-04-10T01:19:58;96377.25;;;7.23;72.19
33454;BME280;39400;49.744;7.012;2023-04-10T01:22:40;96381.88;;;7.19;72.11
33454;BME280;39400;49.744;7.012;2023-04-10T01:25:24;96378.47;;;7.25;71.14
33454;BME280;39400;49.744;7.012;2023-04-10T01:31:20;96366.03;;;7.28;71.18
33454;BME280;39400;49.744;7.012;2023-04-10T01:33:54;96378.56;;;7.29;71.79
33454;BME280;39400;49.744;7.012;2023-04-10T01:36:26;96369.34;;;7.18;71.71
33454;BME280;39400;49.744;7.012;2023-04-10T01:38:55;96370.16;;;7.18;71.78
33454;BME280;39400;49.744;7.012;2023-04-10T01:41:22;96370.22;;;7.22;72.19
33454;BME280;39400;49.744;7.012;2023-04-10T01:43:50;96373.22;;;7.17;71.81
33454;BME280;39400;49.744;7.012;2023-04-10T01:46:20;96361.16;;;7.18;71.36
33454;BME280;39400;49.744;7.012;2023-04-10T01:48:47;96355.09;;;7.08;71.75
33454;BME280;39400;49.744;7.012;2023-04-10T01:51:14;96345.88;;;7.17;72.16
33454;BME280;39400;49.744;7.012;2023-04-10T01:53:42;96342.16;;;7.25;71.15
33454;BME280;39400;49.744;7.012;2023-04-10T01:56:09;96345.03;;;7.12;71.45
33454;BME280;39400;49.744;7.012;2023-04-10T01:58:41;96341.88;;;7.10;71.49
33454;BME280;39400;49.744;7.012;2023-04-10T02:01:06;96327.25;;;7.03;71.23
33454;BME280;39400;49.744;7.012;2023-04-10T02:03:32;96329.28;;;7.06;71.80
33454;BME280;39400;49.744;7.012;2023-04-10T02:06:10;96331.44;;;6.97;72.16
33454;BME280;39400;49.744;7.012;2023-04-10T02:08:42;96321.72;;;6.99;72.24
33454;BME280;39400;49.744;7.012;2023-04-10T02:11:19;96319.28;;;6.94;72.36
33454;BME280;39400;49.744;7.012;2023-04-10T02:13:49;96316.38;;;7.06;72.06
33454;BME280;39400;49.744;7.012;2023-04-10T02:16:18;96312.78;;;7.02;71.84
33454;BME280;39400;49.744;7.012;2023-04-10T02:18:46;96305.63;;;6.94;72.15
33454;BME280;39400;49.744;7.012;2023-04-10T02:21:14;96299.16;;;6.83;71.95
33454;BME280;39400;49.744;7.012;2023-04-10T02:23:39;96300.59;;;6.77;72.54
33454;BME280;39400;49.744;7.012;2023-04-10T02:26:08;96302.94;;;6.78;73.13
33454;BME280;39400;49.744;7.012;2023-04-10T02:28:36;96297.41;;;6.75;72.35
33454;BME280;39400;49.744;7.012;2023-04-10T02:31:05;96295.53;;;6.79;72.98
33454;BME280;39400;49.744;7.012;2023-04-10T02:33:31;96287.78;;;6.81;72.47
33454;BME280;39400;49.744;7.012;2023-04-10T02:35:56;96292.09;;;6.82;72.19
33454;BME280;39400;49.744;7.012;2023-04-10T02:38:22;96279.44;;;6.74;73.10
33454;BME280;39400;49.744;7.012;2023-04-10T02:40:47;96283.34;;;6.73;72.10
33454;BME280;39400;49.744;7.012;2023-04-10T02:43:15;96287.84;;;6.65;72.97
33454;BME280;39400;49.744;7.012;2023-04-10T02:45:41;96292.97;;;6.86;72.53
33454;BME280;39400;49.744;7.012;2023-04-10T02:48:08;96300.72;;;6.84;72.31
33454;BME280;39400;49.744;7.012;2023-04-10T02:50:33;96292.75;;;6.75;72.48
33454;BME280;39400;49.744;7.012;2023-04-10T02:52:59;96287.94;;;6.69;73.00
33454;BME280;39400;49.744;7.012;2023-04-10T02:55:24;96296.69;;;6.78;72.73
33454;BME280;39400;49.744;7.012;2023-04-10T02:57:50;96291.81;;;6.67;72.65
33454;BME280;39400;49.744;7.012;2023-04-10T03:00:15;96308.06;;;6.60;73.30
33454;BME280;39400;49.744;7.012;2023-04-10T03:02:59;96301.88;;;6.63;73.10
33454;BME280;39400;49.744;7.012;2023-04-10T03:05:31;96294.84;;;6.62;73.12
33454;BME280;39400;49.744;7.012;2023-04-10T03:07:56;96298.63;;;6.58;73.22
33454;BME280;39400;49.744;7.012;2023-04-10T03:10:22;96298.63;;;6.58;72.76
33454;BME280;39400;49.744;7.012;2023-04-10T03:12:47;96296.28;;;6.56;73.42
33454;BME280;39400;49.744;7.012;2023-04-10T03:15:12;96291.97;;;6.55;73.49
33454;BME280;39400;49.744;7.012;2023-04-10T03:17:38;96287.72;;;6.58;73.25
33454;BME280;39400;49.744;7.012;2023-04-10T03:20:05;96293.31;;;6.65;72.84
33454;BME280;39400;49.744;7.012;2023-04-10T03:22:30;96284.78;;;6.66;72.56
33454;BME280;39400;49.744;7.012;2023-04-10T03:24:56;96288.09;;;6.56;73.46
33454;BME280;39400;49.744;7.012;2023-04-10T03:27:21;96283.34;;;6.53;72.91
33454;BME280;39400;49.744;7.012;2023-04-10T03:29:47;96285.41;;;6.60;73.19
33454;BME280;39400;49.744;7.012;2023-04-10T03:32:12;96291.25;;;6.58;72.47
33454;BME280;39400;49.744;7.012;2023-04-10T03:34:38;96279.31;;;6.66;72.43
33454;BME280;39400;49.744;7.012;2023-04-10T03:37:03;96271.56;;;6.69;72.23
33454;BME280;39400;49.744;7.012;2023-04-10T03:39:28;96273.13;;;6.70;71.61
33454;BME280;39400;49.744;7.012;2023-04-10T03:41:54;96276.91;;;6.65;71.70
33454;BME280;39400;49.744;7.012;2023-04-10T03:44:22;96279.75;;;6.69;72.14
33454;BME280;39400;49.744;7.012;2023-04-10T03:46:47;96281.03;;;6.75;71.51
33454;BME280;39400;49.744;7.012;2023-04-10T03:49:13;96274.88;;;6.58;72.68
33454;BME280;39400;49.744;7.012;2023-04-10T03:51:38;96271.13;;;6.66;72.00
33454;BME280;39400;49.744;7.012;2023-04-10T03:54:03;96272.28;;;6.65;71.39
33454;BME280;39400;49.744;7.012;2023-04-10T03:56:29;96263.72;;;6.67;71.34
33454;BME280;39400;49.744;7.012;2023-04-10T03:58:54;96265.00;;;6.54;71.89
33454;BME280;39400;49.744;7.012;2023-04-10T04:01:21;96260.91;;;6.63;71.01
33454;BME280;39400;49.744;7.012;2023-04-10T04:04:00;96259.75;;;6.64;71.67
33454;BME280;39400;49.744;7.012;2023-04-10T04:06:46;96263.63;;;6.63;70.69
33454;BME280;39400;49.744;7.012;2023-04-10T04:09:23;96251.84;;;6.59;71.77
33454;BME280;39400;49.744;7.012;2023-04-10T04:12:01;96254.78;;;6.51;71.71
33454;BME280;39400;49.744;7.012;2023-04-10T04:14:45;96257.03;;;6.45;71.94
33454;BME280;39400;49.744;7.012;2023-04-10T04:17:25;96262.63;;;6.52;71.34
33454;BME280;39400;49.744;7.012;2023-04-10T04:20:14;96259.47;;;6.50;71.57
33454;BME280;39400;49.744;7.012;2023-04-10T04:22:58;96261.78;;;6.48;71.31
33454;BME280;39400;49.744;7.012;2023-04-10T04:25:41;96253.16;;;6.46;71.05
33454;BME280;39400;49.744;7.012;2023-04-10T04:28:35;96254.56;;;6.40;70.96
33454;BME280;39400;49.744;7.012;2023-04-10T04:31:19;96252.28;;;6.42;70.17
33454;BME280;39400;49.744;7.012;2023-04-10T04:34:02;96257.53;;;6.51;70.56
33454;BME280;39400;49.744;7.012;2023-04-10T04:36:51;96259.38;;;6.47;70.40
33454;BME280;39400;49.744;7.012;2023-04-10T04:39:34;96258.41;;;6.55;70.07
33454;BME280;39400;49.744;7.012;2023-04-10T04:42:13;96259.47;;;6.50;70.09
33454;BME280;39400;49.744;7.012;2023-04-10T04:44:57;96251.00;;;6.55;70.11
33454;BME280;39400;49.744;7.012;2023-04-10T04:47:40;96250.78;;;6.45;69.69
33454;BME280;39400;49.744;7.012;2023-04-10T04:50:15;96257.09;;;6.49;70.17
33454;BME280;39400;49.744;7.012;2023-04-10T04:52:59;96259.97;;;6.36;70.77
33454;BME280;39400;49.744;7.012;2023-04-10T04:55:31;96265.78;;;6.54;70.08
33454;BME280;39400;49.744;7.012;2023-04-10T04:58:23;96258.16;;;6.63;69.57
33454;BME280;39400;49.744;7.012;2023-04-10T05:01:07;96275.72;;;6.43;69.75
33454;BME280;39400;49.744;7.012;2023-04-10T05:03:53;96275.72;;;6.43;70.53
33454;BME280;39400;49.744;7.012;2023-04-10T05:06:33;96277.13;;;6.37;70.29
33454;BME280;39400;49.744;7.012;2023-04-10T05:09:27;96275.50;;;6.32;70.73
33454;BME280;39400;49.744;7.012;2023-04-10T05:12:11;96284.19;;;6.38;70.96
33454;BME280;39400;49.744;7.012;2023-04-10T05:15:00;96275.56;;;6.36;70.07
33454;BME280;39400;49.744;7.012;2023-04-10T05:17:40;96273.34;;;6.41;69.95
33454;BME280;39400;49.744;7.012;2023-04-10T05:20:23;96275.72;;;6.43;70.09
33454;BME280;39400;49.744;7.012;2023-04-10T05:23:12;96264.13;;;6.50;69.49
33454;BME280;39400;49.744;7.012;2023-04-10T05:25:52;96268.09;;;6.33;69.83
33454;BME280;39400;49.744;7.012;2023-04-10T05:28:37;96276.00;;;6.38;70.53
33454;BME280;39400;49.744;7.012;2023-04-10T05:31:21;96276.41;;;6.40;70.42
33454;BME280;39400;49.744;7.012;2023-04-10T05:34:07;96275.13;;;6.53;71.09
33454;BME280;39400;49.744;7.012;2023-04-10T05:37:06;96281.47;;;6.57;69.86
33454;BME280;39400;49.744;7.012;2023-04-10T05:39:43;96283.06;;;6.58;69.60
33454;BME280;39400;49.744;7.012;2023-04-10T05:42:40;96279.16;;;6.59;69.59
33454;BME280;39400;49.744;7.012;2023-04-10T05:45:35;96286.22;;;6.60;69.46
33454;BME280;39400;49.744;7.012;2023-04-10T05:48:17;96281.03;;;6.75;68.94
33454;BME280;39400;49.744;7.012;2023-04-10T05:51:14;96282.50;;;6.69;69.06
33454;BME280;39400;49.744;7.012;2023-04-10T05:53:54;96277.88;;;6.73;69.44
33454;BME280;39400;49.744;7.012;2023-04-10T05:56:38;96289.66;;;6.77;69.77
33454;BME280;39400;49.744;7.012;2023-04-10T05:59:32;96289.16;;;6.90;69.13
33454;BME280;39400;49.744;7.012;2023-04-10T06:02:13;96290.94;;;7.02;68.25
33454;BME280;39400;49.744;7.012;2023-04-10T06:04:38;96285.47;;;7.02;68.18
33454;BME280;39400;49.744;7.012;2023-04-10T06:07:03;96290.94;;;7.02;67.97
33454;BME280;39400;49.744;7.012;2023-04-10T06:09:31;96297.84;;;6.96;68.50
33454;BME280;39400;49.744;7.012;2023-04-10T06:11:56;96285.31;;;6.95;67.94
33454;BME280;39400;49.744;7.012;2023-04-10T06:14:22;96292.28;;;7.12;67.55
33454;BME280;39400;49.744;7.012;2023-04-10T06:16:48;96290.41;;;7.16;67.24
33454;BME280;39400;49.744;7.012;2023-04-10T06:19:14;96288.72;;;7.31;67.16
33454;BME280;39400;49.744;7.012;2023-04-10T06:21:39;96292.31;;;7.35;67.09
33454;BME280;39400;49.744;7.012;2023-04-10T06:24:04;96286.97;;;7.42;66.41
33454;BME280;39400;49.744;7.012;2023-04-10T06:26:30;96293.53;;;7.60;66.22
33454;BME280;39400;49.744;7.012;2023-04-10T06:28:55;96290.66;;;7.53;65.88
33454;BME280;39400;49.744;7.012;2023-04-10T06:31:21;96286.69;;;7.74;67.50
33454;BME280;39400;49.744;7.012;2023-04-10T06:33:50;96291.97;;;7.86;65.38
33454;BME280;39400;49.744;7.012;2023-04-10T06:36:16;96284.50;;;7.83;65.93
33454;BME280;39400;49.744;7.012;2023-04-10T06:38:48;96285.47;;;7.94;64.40
33454;BME280;39400;49.744;7.012;2023-04-10T06:41:13;96279.75;;;8.06;65.62
33454;BME280;39400;49.744;7.012;2023-04-10T06:43:39;96283.72;;;8.09;63.91
33454;BME280;39400;49.744;7.012;2023-04-10T06:46:05;96285.88;;;8.23;64.47
33454;BME280;39400;49.744;7.012;2023-04-10T06:48:31;96282.47;;;8.33;63.56
33454;BME280;39400;49.744;7.012;2023-04-10T06:50:56;96281.19;;;8.50;63.02
33454;BME280;39400;49.744;7.012;2023-04-10T06:53:21;96283.28;;;8.60;63.00
33454;BME280;39400;49.744;7.012;2023-04-10T06:55:47;96285.72;;;8.69;63.28
33454;BME280;39400;49.744;7.012;2023-04-10T06:58:12;96281.75;;;8.63;62.53
33454;BME280;39400;49.744;7.012;2023-04-10T07:00:37;96281.75;;;8.63;62.98
33454;BME280;39400;49.744;7.012;2023-04-10T07:03:03;96274.44;;;8.74;63.36
33454;BME280;39400;49.744;7.012;2023-04-10T07:05:28;96274.25;;;8.93;62.12
33454;BME280;39400;49.744;7.012;2023-04-10T07:07:53;96278.97;;;8.96;60.84
33454;BME280;39400;49.744;7.012;2023-04-10T07:10:19;96282.22;;;9.05;61.50
33454;BME280;39400;49.744;7.012;2023-04-10T07:12:44;96279.81;;;9.00;60.50
33454;BME280;39400;49.744;7.012;2023-04-10T07:15:09;96277.56;;;9.10;61.54
33454;BME280;39400;49.744;7.012;2023-04-10T07:17:35;96276.81;;;9.13;59.71
33454;BME280;39400;49.744;7.012;2023-04-10T07:20:00;96280.06;;;9.22;59.42
33454;BME280;39400;49.744;7.012;2023-04-10T07:22:25;96281.00;;;9.40;60.21
33454;BME280;39400;49.744;7.012;2023-04-10T07:24:51;96281.81;;;9.44;59.07
33454;BME280;39400;49.744;7.012;2023-04-10T07:27:16;96272.59;;;9.63;58.73
33454;BME280;39400;49.744;7.012;2023-04-10T07:29:41;96265.53;;;9.66;57.45
33454;BME280;39400;49.744;7.012;2023-04-10T07:32:07;96272.59;;;9.63;57.82
33454;BME280;39400;49.744;7.012;2023-04-10T07:34:32;96270.97;;;9.59;58.65
33454;BME280;39400;49.744;7.012;2023-04-10T07:36:57;96276.09;;;9.60;57.02
33454;BME280;39400;49.744;7.012;2023-04-10T07:39:23;96269.41;;;9.58;57.86
33454;BME280;39400;49.744;7.012;2023-04-10T07:41:48;96260.41;;;9.61;57.87
33454;BME280;39400;49.744;7.012;2023-04-10T07:44:13;96263.22;;;9.68;56.96
33454;BME280;39400;49.744;7.012;2023-04-10T07:46:39;96259.34;;;9.76;58.13
33454;BME280;39400;49.744;7.012;2023-04-10T07:49:04;96266.84;;;9.83;57.78
33454;BME280;39400;49.744;7.012;2023-04-10T07:51:30;96241.16;;;10.09;56.77
33454;BME280;39400;49.744;7.012;2023-04-10T07:53:55;96250.16;;;10.06;57.62
33454;BME280;39400;49.744;7.012;2023-04-10T07:56:21;96248.63;;;10.12;57.36
33454;BME280;39400;49.744;7.012;2023-04-10T07:58:46;96247.44;;;10.13;55.92
33454;BME280;39400;49.744;7.012;2023-04-10T08:01:12;96241.94;;;10.09;54.90
33454;BME280;39400;49.744;7.012;2023-04-10T08:03:41;96248.22;;;10.13;55.64
33454;BME280;39400;49.744;7.012;2023-04-10T08:06:08;96259.88;;;9.92;55.59
33454;BME280;39400;49.744;7.012;2023-04-10T08:08:37;96256.81;;;10.05;55.65
33454;BME280;39400;49.744;7.012;2023-04-10T08:11:07;96246.31;;;10.21;55.47
33454;BME280;39400;49.744;7.012;2023-04-10T08:13:32;96247.03;;;10.14;55.82
33454;BME280;39400;49.744;7.012;2023-04-10T08:15:58;96250.31;;;10.27;55.60
33454;BME280;39400;49.744;7.012;2023-04-10T08:18:24;96248.03;;;10.43;56.32
33454;BME280;39400;49.744;7.012;2023-04-10T08:20:49;96244.06;;;10.34;56.36
33454;BME280;39400;49.744;7.012;2023-04-10T08:23:14;96243.34;;;10.47;55.86
33454;BME280;39400;49.744;7.012;2023-04-10T08:25:39;96250.13;;;10.68;57.13
33454;BME280;39400;49.744;7.012;2023-04-10T08:28:05;96242.66;;;10.68;55.82
33454;BME280;39400;49.744;7.012;2023-04-10T08:30:30;96242.63;;;10.65;57.26
33454;BME280;39400;49.744;7.012;2023-04-10T08:32:55;96239.91;;;10.72;56.02
33454;BME280;39400;49.744;7.012;2023-04-10T08:35:21;96246.63;;;10.78;55.52
33454;BME280;39400;49.744;7.012;2023-04-10T08:37:46;96237.19;;;10.86;57.16
33454;BME280;39400;49.744;7.012;2023-04-10T08:40:11;96242.31;;;10.81;55.76
33454;BME280;39400;49.744;7.012;2023-04-10T08:42:37;96240.34;;;10.81;56.31
33454;BME280;39400;49.744;7.012;2023-04-10T08:45:02;96237.59;;;10.78;57.36
33454;BME280;39400;49.744;7.012;2023-04-10T08:47:28;96233.25;;;10.87;56.45
33454;BME280;39400;49.744;7.012;2023-04-10T08:50:03;96237.25;;;11.08;57.05
33454;BME280;39400;49.744;7.012;2023-04-10T08:52:33;96231.00;;;11.25;57.24
33454;BME280;39400;49.744;7.012;2023-04-10T08:54:59;96232.97;;;11.35;56.71
33454;BME280;39400;49.744;7.012;2023-04-10T08:57:27;96228.66;;;11.63;56.86
33454;BME280;39400;49.744;7.012;2023-04-10T08:59:53;96220.03;;;11.68;55.11
33454;BME280;39400;49.744;7.012;2023-04-10T09:02:19;96218.47;;;11.88;56.27
33454;BME280;39400;49.744;7.012;2023-04-10T09:04:52;96216.47;;;12.07;55.97
33454;BME280;39400;49.744;7.012;2023-04-10T09:07:17;96228.56;;;12.45;55.39
33454;BME280;39400;49.744;7.012;2023-04-10T09:09:43;96214.78;;;12.49;55.61
33454;BME280;39400;49.744;7.012;2023-04-10T09:12:09;96208.06;;;12.50;54.95
33454;BME280;39400;49.744;7.012;2023-04-10T09:14:35;96211.91;;;12.74;56.85
33454;BME280;39400;49.744;7.012;2023-04-10T09:17:17;96215.06;;;12.76;54.25
33454;BME280;39400;49.744;7.012;2023-04-10T09:19:45;96205.97;;;12.79;55.38
33454;BME280;39400;49.744;7.012;2023-04-10T09:22:11;96199.25;;;12.83;54.76
33454;BME280;39400;49.744;7.012;2023-04-10T09:24:39;96200.44;;;12.82;55.55
33454;BME280;39400;49.744;7.012;2023-04-10T09:27:05;96188.94;;;12.95;54.34
33454;BME280;39400;49.744;7.012;2023-04-10T09:29:57;96182.97;;;13.03;53.81
33454;BME280;39400;49.744;7.012;2023-04-10T09:32:38;96186.25;;;12.80;54.33
33454;BME280;39400;49.744;7.012;2023-04-10T09:35:04;96181.88;;;12.90;54.37
33454;BME280;39400;49.744;7.012;2023-04-10T09:37:33;96184.22;;;12.88;54.47
33454;BME280;39400;49.744;7.012;2023-04-10T09:39:58;96170.06;;;12.86;53.91
33454;BME280;39400;49.744;7.012;2023-04-10T09:42:35;96174.00;;;12.89;54.43
33454;BME280;39400;49.744;7.012;2023-04-10T09:45:00;96173.97;;;12.96;56.65
33454;BME280;39400;49.744;7.012;2023-04-10T09:47:26;96171.94;;;13.03;52.45
33454;BME280;39400;49.744;7.012;2023-04-10T09:49:54;96172.28;;;13.09;54.14
33454;BME280;39400;49.744;7.012;2023-04-10T09:52:23;96169.50;;;13.09;53.27
33454;BME280;39400;49.744;7.012;2023-04-10T09:54:49;96168.28;;;13.17;52.32
33454;BME280;39400;49.744;7.012;2023-04-10T09:57:16;96176.69;;;13.59;51.76
33454;BME280;39400;49.744;7.012;2023-04-10T09:59:42;96167.16;;;13.63;50.57
33454;BME280;39400;49.744;7.012;2023-04-10T10:02:12;96164.00;;;13.61;51.32
33454;BME280;39400;49.744;7.012;2023-04-10T10:04:39;96165.53;;;13.69;51.17
33454;BME280;39400;49.744;7.012;2023-04-10T10:07:06;96169.66;;;13.47;51.56
33454;BME280;39400;49.744;7.012;2023-04-10T10:09:32;96165.63;;;13.59;51.15
33454;BME280;39400;49.744;7.012;2023-04-10T10:11:58;96156.97;;;13.56;50.85
33454;BME280;39400;49.744;7.012;2023-04-10T10:14:25;96153.19;;;13.81;52.21
33454;BME280;39400;49.744;7.012;2023-04-10T10:16:55;96157.47;;;13.89;52.17
33454;BME280;39400;49.744;7.012;2023-04-10T10:19:40;96157.19;;;14.14;50.57
33454;BME280;39400;49.744;7.012;2023-04-10T10:22:07;96161.91;;;14.17;50.98
33454;BME280;39400;49.744;7.012;2023-04-10T10:24:34;96154.03;;;14.12;50.48
33454;BME280;39400;49.744;7.012;2023-04-10T10:27:03;96159.97;;;14.14;50.56
33454;BME280;39400;49.744;7.012;2023-04-10T10:29:31;96154.97;;;13.98;48.74
33454;BME280;39400;49.744;7.012;2023-04-10T10:31:59;96148.66;;;13.98;49.75
33454;BME280;39400;49.744;7.012;2023-04-10T10:34:25;96149.78;;;14.04;49.73
33454;BME280;39400;49.744;7.012;2023-04-10T10:36:50;96149.94;;;14.27;49.90
33454;BME280;39400;49.744;7.012;2023-04-10T10:39:33;96140.72;;;14.38;51.67
33454;BME280;39400;49.744;7.012;2023-04-10T10:42:35;96140.84;;;14.61;49.70
33454;BME280;39400;49.744;7.012;2023-04-10T10:44:59;96139.47;;;14.77;51.12
33454;BME280;39400;49.744;7.012;2023-04-10T10:47:33;96131.94;;;14.77;50.21
33454;BME280;39400;49.744;7.012;2023-04-10T10:50:02;96128.44;;;15.00;48.07
33454;BME280;39400;49.744;7.012;2023-04-10T10:52:44;96130.53;;;14.65;46.25
33454;BME280;39400;49.744;7.012;2023-04-10T10:57:52;96121.22;;;14.52;47.68
33454;BME280;39400;49.744;7.012;2023-04-10T11:00:18;96117.97;;;14.57;49.00
33454;BME280;39400;49.744;7.012;2023-04-10T11:02:44;96099.28;;;14.65;48.50
33454;BME280;39400;49.744;7.012;2023-04-10T11:05:09;96109.22;;;14.62;47.20
33454;BME280;39400;49.744;7.012;2023-04-10T11:11:00;96103.25;;;14.91;49.68
33454;BME280;39400;49.744;7.012;2023-04-10T11:13:25;96099.50;;;14.78;48.56
33454;BME280;39400;49.744;7.012;2023-04-10T11:15:51;96091.50;;;14.56;48.78
33454;BME280;39400;49.744;7.012;2023-04-10T11:18:16;96087.97;;;14.83;48.83
33454;BME280;39400;49.744;7.012;2023-04-10T11:21:08;96078.84;;;14.82;49.65
33454;BME280;39400;49.744;7.012;2023-04-10T11:23:34;96081.50;;;15.16;49.26
33454;BME280;39400;49.744;7.012;2023-04-10T11:25:59;96077.66;;;15.10;49.73
33454;BME280;39400;49.744;7.012;2023-04-10T11:31:12;96082.34;;;15.13;49.56
33454;BME280;39400;49.744;7.012;2023-04-10T11:33:38;96082.28;;;15.17;50.50
33454;BME280;39400;49.744;7.012;2023-04-10T11:36:03;96075.25;;;15.36;49.07
33454;BME280;39400;49.744;7.012;2023-04-10T11:38:30;96065.59;;;15.20;49.23
33454;BME280;39400;49.744;7.012;2023-04-10T11:41:02;96061.66;;;15.21;48.90
33454;BME280;39400;49.744;7.012;2023-04-10T11:43:28;96058.88;;;15.21;49.18
33454;BME280;39400;49.744;7.012;2023-04-10T11:46:01;96060.56;;;15.15;47.81
33454;BME280;39400;49.744;7.012;2023-04-10T11:48:27;96066.66;;;15.03;48.65
33454;BME280;39400;49.744;7.012;2023-04-10T11:50:53;96061.56;;;14.74;49.83
33454;BME280;39400;49.744;7.012;2023-04-10T11:53:19;96051.31;;;14.98;50.24
33454;BME280;39400;49.744;7.012;2023-04-10T11:55:45;96059.16;;;15.04;49.80
33454;BME280;39400;49.744;7.012;2023-04-10T11:58:24;96046.81;;;15.32;48.44
33454;BME280;39400;49.744;7.012;2023-04-10T12:00:56;96053.06;;;15.12;50.41
33454;BME280;39400;49.744;7.012;2023-04-10T12:03:36;96052.13;;;15.22;50.40
33454;BME280;39400;49.744;7.012;2023-04-10T12:06:03;96052.00;;;15.30;50.37
33454;BME280;39400;49.744;7.012;2023-04-10T12:08:44;96042.72;;;15.16;48.90
33454;BME280;39400;49.744;7.012;2023-04-10T12:11:10;96048.25;;;15.16;49.64
33454;BME280;39400;49.744;7.012;2023-04-10T12:13:36;96050.44;;;15.29;48.49
33454;BME280;39400;49.744;7.012;2023-04-10T12:16:06;96047.47;;;15.16;48.73
33454;BME280;39400;49.744;7.012;2023-04-10T12:18:32;96048.25;;;15.16;47.50
33454;BME280;39400;49.744;7.012;2023-04-10T12:20:58;96037.47;;;14.98;48.92
33454;BME280;39400;49.744;7.012;2023-04-10T12:23:26;96038.69;;;15.21;47.75
33454;BME280;39400;49.744;7.012;2023-04-10T12:25:55;96029.72;;;15.37;46.91
33454;BME280;39400;49.744;7.012;2023-04-10T12:28:29;96032.00;;;15.42;47.02
33454;BME280;39400;49.744;7.012;2023-04-10T12:30:54;96021.50;;;15.53;47.75
33454;BME280;39400;49.744;7.012;2023-04-10T12:33:24;96030.91;;;15.59;48.15
33454;BME280;39400;49.744;7.012;2023-04-10T12:35:50;96025.50;;;15.52;47.52
33454;BME280;39400;49.744;7.012;2023-04-10T12:38:42;96035.13;;;15.44;46.57
33454;BME280;39400;49.744;7.012;2023-04-10T12:41:08;96032.00;;;15.42;47.41
33454;BME280;39400;49.744;7.012;2023-04-10T12:43:41;96028.88;;;15.40;47.95
33454;BME280;39400;49.744;7.012;2023-04-10T12:46:09;96029.13;;;15.26;48.40
33454;BME280;39400;49.744;7.012;2023-04-10T12:48:35;96028.59;;;15.11;49.21
33454;BME280;39400;49.744;7.012;2023-04-10T12:51:01;96024.91;;;14.94;50.01
33454;BME280;39400;49.744;7.012;2023-04-10T12:53:27;96021.41;;;14.90;49.55
33454;BME280;39400;49.744;7.012;2023-04-10T12:56:05;96022.47;;;14.96;49.74
33454;BME280;39400;49.744;7.012;2023-04-10T12:58:31;96009.34;;;15.23;48.93
33454;BME280;39400;49.744;7.012;2023-04-10T13:01:01;96014.75;;;15.31;49.06
33454;BME280;39400;49.744;7.012;2023-04-10T13:03:27;96014.44;;;15.29;49.83
33454;BME280;39400;49.744;7.012;2023-04-10T13:05:52;96019.13;;;15.08;49.61
33454;BME280;39400;49.744;7.012;2023-04-10T13:08:18;96009.34;;;15.23;51.19
33454;BME280;39400;49.744;7.012;2023-04-10T13:10:44;96008.06;;;15.52;48.54
33454;BME280;39400;49.744;7.012;2023-04-10T13:13:09;96010.56;;;15.46;48.19
33454;BME280;39400;49.744;7.012;2023-04-10T13:15:34;96018.75;;;15.30;48.15
33454;BME280;39400;49.744;7.012;2023-04-10T13:18:00;96008.16;;;15.25;47.29
33454;BME280;39400;49.744;7.012;2023-04-10T13:20:25;95995.34;;;15.11;47.30
33454;BME280;39400;49.744;7.012;2023-04-10T13:22:51;95993.25;;;15.18;47.57
33454;BME280;39400;49.744;7.012;2023-04-10T13:25:16;95990.84;;;15.40;48.49
33454;BME280;39400;49.744;7.012;2023-04-10T13:27:41;95980.31;;;15.55;49.46
33454;BME280;39400;49.744;7.012;2023-04-10T13:30:07;95986.31;;;15.50;48.31
33454;BME280;39400;49.744;7.012;2023-04-10T13:32:32;95979.41;;;15.58;48.89
33454;BME280;39400;49.744;7.012;2023-04-10T13:34:58;95975.22;;;15.74;49.88
33454;BME280;39400;49.744;7.012;2023-04-10T13:37:23;95978.06;;;15.70;48.63
33454;BME280;39400;49.744;7.012;2023-04-10T13:39:48;95965.38;;;15.49;47.54